createdAt,value
2018-10-06T00:01:47.149Z,14.90
2018-10-06T00:04:14.970Z,14.91
2018-10-06T00:06:42.837Z,14.75
2018-10-06T00:09:10.637Z,14.85
2018-10-06T00:11:38.457Z,14.72
2018-10-06T00:14:06.330Z,14.61
2018-10-06T00:16:34.143Z,14.43
2018-10-06T00:19:01.974Z,14.28
2018-10-06T00:21:29.842Z,14.13
2018-10-06T00:23:57.683Z,14.07
2018-10-06T00:26:25.544Z,13.89
2018-10-06T00:28:53.414Z,13.72
2018-10-06T00:31:21.260Z,13.64
2018-10-06T00:33:49.079Z,13.58
2018-10-06T00:36:16.993Z,13.52
2018-10-06T00:38:44.774Z,13.25
2018-10-06T00:41:12.554Z,13.28
2018-10-06T00:43:40.397Z,13.21
2018-10-06T00:46:08.477Z,13.01
2018-10-06T00:48:36.263Z,13.07
2018-10-06T00:51:04.093Z,12.92
2018-10-06T00:53:31.893Z,12.82
2018-10-06T00:55:59.672Z,12.85
2018-10-06T00:58:27.498Z,12.77
2018-10-06T01:00:55.281Z,12.73
2018-10-06T01:03:23.066Z,12.72
2018-10-06T01:05:50.910Z,12.68
2018-10-06T01:08:18.682Z,12.71
2018-10-06T01:10:46.475Z,12.77
2018-10-06T01:13:14.309Z,12.69
2018-10-06T01:15:42.109Z,12.62
2018-10-06T01:18:09.900Z,12.65
2018-10-06T01:20:37.787Z,12.62
2018-10-06T01:23:05.579Z,12.60
2018-10-06T01:25:33.370Z,12.55
2018-10-06T01:28:02.531Z,12.42
2018-10-06T01:30:30.334Z,12.39
2018-10-06T01:32:58.042Z,12.29
2018-10-06T01:35:25.854Z,12.31
2018-10-06T01:37:53.673Z,12.20
2018-10-06T01:40:21.474Z,12.21
2018-10-06T01:42:49.319Z,12.15
2018-10-06T01:45:17.126Z,12.12
2018-10-06T01:47:44.934Z,12.13
2018-10-06T01:50:12.758Z,12.14
2018-10-06T01:52:40.554Z,12.15
2018-10-06T01:55:08.359Z,12.21
2018-10-06T01:57:36.193Z,12.02
2018-10-06T02:00:03.993Z,11.97
2018-10-06T02:02:31.802Z,12.03
2018-10-06T02:04:59.660Z,12.05
2018-10-06T02:07:27.445Z,12.13
2018-10-06T02:09:55.208Z,12.10
2018-10-06T02:12:22.943Z,12.16
2018-10-06T02:14:50.694Z,12.36
2018-10-06T02:17:18.384Z,12.47
2018-10-06T02:19:46.094Z,12.49
2018-10-06T02:22:13.838Z,12.33
2018-10-06T02:24:41.603Z,12.37
2018-10-06T02:27:09.405Z,12.40
2018-10-06T02:29:37.073Z,12.37
2018-10-06T02:32:05.123Z,12.34
2018-10-06T02:34:32.850Z,12.21
2018-10-06T02:37:00.654Z,12.44
2018-10-06T02:39:28.339Z,12.46
2018-10-06T02:41:56.127Z,12.26
2018-10-06T02:44:23.919Z,12.46
2018-10-06T02:46:51.685Z,12.55
2018-10-06T02:49:19.389Z,12.51
2018-10-06T02:51:47.072Z,12.69
2018-10-06T02:54:14.828Z,13.05
2018-10-06T02:56:42.602Z,13.00
2018-10-06T02:59:10.378Z,13.09
2018-10-06T03:01:38.132Z,13.26
2018-10-06T03:04:06.075Z,13.37
2018-10-06T03:06:33.808Z,13.30
2018-10-06T03:09:01.536Z,13.26
2018-10-06T03:11:29.294Z,13.22
2018-10-06T03:13:57.026Z,13.23
2018-10-06T03:16:25.052Z,13.36
2018-10-06T03:18:52.782Z,13.15
2018-10-06T03:21:20.934Z,13.31
2018-10-06T03:23:48.676Z,13.24
2018-10-06T03:26:16.417Z,13.37
2018-10-06T03:28:44.097Z,13.36
2018-10-06T03:31:11.807Z,13.36
2018-10-06T03:33:39.510Z,13.40
2018-10-06T03:36:07.289Z,13.29
2018-10-06T03:38:35.046Z,13.27
2018-10-06T03:41:02.834Z,13.09
2018-10-06T03:43:30.560Z,13.19
2018-10-06T03:45:58.326Z,13.16
2018-10-06T03:48:26.119Z,13.10
2018-10-06T03:50:53.870Z,13.02
2018-10-06T03:53:21.597Z,12.90
2018-10-06T03:55:49.690Z,13.01
2018-10-06T03:58:17.402Z,12.89
2018-10-06T04:00:45.085Z,12.99
2018-10-06T04:03:12.911Z,12.85
2018-10-06T04:05:40.762Z,12.98
2018-10-06T04:08:08.498Z,13.02
2018-10-06T04:10:36.309Z,13.04
2018-10-06T04:13:04.085Z,12.95
2018-10-06T04:15:31.881Z,12.93
2018-10-06T04:17:59.645Z,12.91
2018-10-06T04:20:27.474Z,12.89
2018-10-06T04:22:55.205Z,12.83
2018-10-06T04:25:23.010Z,12.88
2018-10-06T04:27:50.768Z,12.86
2018-10-06T04:30:18.545Z,13.05
2018-10-06T04:32:46.395Z,13.11
2018-10-06T04:35:14.139Z,13.07
2018-10-06T04:37:41.869Z,13.26
2018-10-06T04:40:09.636Z,13.24
2018-10-06T04:42:37.406Z,13.34
2018-10-06T04:45:05.198Z,13.35
2018-10-06T04:47:33.233Z,13.41
2018-10-06T04:50:00.954Z,13.44
2018-10-06T04:52:28.682Z,13.56
2018-10-06T04:54:56.453Z,13.73
2018-10-06T04:57:24.108Z,14.74
2018-10-06T04:59:51.841Z,15.49
2018-10-06T05:02:19.598Z,16.75
2018-10-06T05:04:47.301Z,17.05
2018-10-06T05:07:15.082Z,17.43
2018-10-06T05:09:42.861Z,17.74
2018-10-06T05:12:10.549Z,18.35
2018-10-06T05:14:38.317Z,18.55
2018-10-06T05:17:06.044Z,18.82
2018-10-06T05:19:33.732Z,19.76
2018-10-06T05:22:01.459Z,20.00
2018-10-06T05:24:29.266Z,19.28
2018-10-06T05:26:56.938Z,18.31
2018-10-06T05:29:24.703Z,18.43
2018-10-06T05:31:52.470Z,18.61
2018-10-06T05:34:20.405Z,18.69
2018-10-06T05:36:48.269Z,18.59
2018-10-06T05:39:16.053Z,19.59
2018-10-06T05:41:43.750Z,19.36
2018-10-06T05:44:11.513Z,18.85
2018-10-06T05:46:39.278Z,18.81
2018-10-06T05:49:06.973Z,18.73
2018-10-06T05:51:34.669Z,18.91
2018-10-06T05:54:02.510Z,18.56
2018-10-06T05:56:30.205Z,19.19
2018-10-06T05:58:57.895Z,19.10
2018-10-06T06:01:25.730Z,18.27
2018-10-06T06:03:53.451Z,18.34
2018-10-06T06:06:21.202Z,18.38
2018-10-06T06:08:49.008Z,18.61
2018-10-06T06:11:16.734Z,18.37
2018-10-06T06:13:44.457Z,18.05
2018-10-06T06:16:12.231Z,17.86
2018-10-06T06:18:39.901Z,18.11
2018-10-06T06:21:07.658Z,17.91
2018-10-06T06:23:35.474Z,18.14
2018-10-06T06:26:03.207Z,18.37
2018-10-06T06:28:30.901Z,18.39
2018-10-06T06:30:58.667Z,18.20
2018-10-06T06:33:26.401Z,18.36
2018-10-06T06:35:54.146Z,18.44
2018-10-06T06:38:21.950Z,18.87
2018-10-06T06:40:49.694Z,18.94
2018-10-06T06:43:17.487Z,18.85
2018-10-06T06:45:45.267Z,18.96
2018-10-06T06:48:12.937Z,19.43
2018-10-06T06:50:40.663Z,19.36
2018-10-06T06:53:08.453Z,19.07
2018-10-06T06:55:36.181Z,19.00
2018-10-06T06:58:03.920Z,19.34
2018-10-06T07:00:31.697Z,19.61
2018-10-06T07:05:35.819Z,19.67
2018-10-06T07:08:03.605Z,19.88
2018-10-06T07:10:31.360Z,19.77
2018-10-06T07:12:59.171Z,19.74
2018-10-06T07:15:26.935Z,20.06
2018-10-06T07:17:54.649Z,20.38
2018-10-06T07:20:22.436Z,20.61
2018-10-06T07:22:50.181Z,20.38
2018-10-06T07:25:17.916Z,20.90
2018-10-06T07:27:45.766Z,20.80
2018-10-06T07:30:13.503Z,20.90
2018-10-06T07:32:41.209Z,20.77
2018-10-06T07:35:09.174Z,20.55
2018-10-06T07:37:36.946Z,20.82
2018-10-06T07:40:04.734Z,20.65
2018-10-06T07:42:32.517Z,20.81
2018-10-06T07:45:00.322Z,20.92
2018-10-06T07:47:28.067Z,21.13
2018-10-06T07:49:55.870Z,21.22
2018-10-06T07:52:23.614Z,21.31
2018-10-06T07:54:51.394Z,21.59
2018-10-06T07:57:19.150Z,22.02
2018-10-06T07:59:46.881Z,21.77
2018-10-06T08:02:14.789Z,21.44
2018-10-06T08:04:42.578Z,22.00
2018-10-06T08:07:10.440Z,21.94
2018-10-06T08:09:38.140Z,22.43
2018-10-06T08:12:06.286Z,22.35
2018-10-06T08:14:34.081Z,22.89
2018-10-06T08:17:01.986Z,22.75
2018-10-06T08:19:29.747Z,22.93
2018-10-06T08:21:57.549Z,22.83
2018-10-06T08:24:25.309Z,22.90
2018-10-06T08:26:53.106Z,23.12
2018-10-06T08:29:20.870Z,22.95
2018-10-06T08:31:48.678Z,23.49
2018-10-06T08:34:16.373Z,23.18
2018-10-06T08:36:44.166Z,23.12
2018-10-06T08:39:11.945Z,23.49
2018-10-06T08:41:39.718Z,23.76
2018-10-06T08:44:07.427Z,23.90
2018-10-06T08:46:35.255Z,24.08
2018-10-06T08:49:03.364Z,24.16
2018-10-06T08:51:31.254Z,23.24
2018-10-06T08:53:59.300Z,23.31
2018-10-06T08:56:27.186Z,23.41
2018-10-06T08:58:54.856Z,23.91
2018-10-06T09:01:23.417Z,24.06
2018-10-06T09:03:51.201Z,24.18
2018-10-06T09:06:18.943Z,24.55
2018-10-06T09:08:46.624Z,24.42
2018-10-06T09:11:14.401Z,24.62
2018-10-06T09:13:42.233Z,24.73
2018-10-06T09:16:10.039Z,24.04
2018-10-06T09:18:37.866Z,23.82
2018-10-06T09:21:05.630Z,24.55
2018-10-06T09:23:33.370Z,24.86
2018-10-06T09:26:01.115Z,25.46
2018-10-06T09:28:28.943Z,25.98
2018-10-06T09:30:56.875Z,25.69
2018-10-06T09:33:24.697Z,24.88
2018-10-06T09:35:52.485Z,24.94
2018-10-06T09:38:20.287Z,25.33
2018-10-06T09:40:48.069Z,25.57
2018-10-06T09:43:15.828Z,25.11
2018-10-06T09:45:43.598Z,25.71
2018-10-06T09:48:11.360Z,26.09
2018-10-06T09:50:39.085Z,26.76
2018-10-06T09:53:06.846Z,26.16
2018-10-06T09:55:34.676Z,26.21
2018-10-06T09:58:02.474Z,25.89
2018-10-06T10:00:35.778Z,25.44
2018-10-06T10:03:09.399Z,25.43
2018-10-06T10:05:42.780Z,25.39
2018-10-06T10:08:10.594Z,25.93
2018-10-06T10:10:38.349Z,25.94
2018-10-06T10:13:06.587Z,25.72
2018-10-06T10:15:34.294Z,25.31
2018-10-06T10:18:02.101Z,25.50
2018-10-06T10:20:29.881Z,26.20
2018-10-06T10:22:57.592Z,26.26
2018-10-06T10:25:25.441Z,26.14
2018-10-06T10:27:53.259Z,26.40
2018-10-06T10:30:21.051Z,26.33
2018-10-06T10:32:48.827Z,26.46
2018-10-06T10:35:16.654Z,26.51
2018-10-06T10:37:44.402Z,25.66
2018-10-06T10:40:12.150Z,26.56
2018-10-06T10:42:39.893Z,26.63
2018-10-06T10:45:07.686Z,27.00
2018-10-06T10:47:35.453Z,27.02
2018-10-06T10:50:03.251Z,26.77
2018-10-06T10:52:30.979Z,26.48
2018-10-06T10:54:58.818Z,27.37
2018-10-06T10:57:26.632Z,27.23
2018-10-06T10:59:54.553Z,27.33
2018-10-06T11:02:22.346Z,27.56
2018-10-06T11:04:50.216Z,28.06
2018-10-06T11:07:17.913Z,28.39
2018-10-06T11:09:45.685Z,28.02
2018-10-06T11:12:13.515Z,27.94
2018-10-06T11:14:41.250Z,27.19
2018-10-06T11:17:09.038Z,27.52
2018-10-06T11:19:36.886Z,27.18
2018-10-06T11:22:04.614Z,27.33
2018-10-06T11:24:32.338Z,27.99
2018-10-06T11:27:00.107Z,28.08
2018-10-06T11:29:27.854Z,28.42
2018-10-06T11:31:55.633Z,28.38
2018-10-06T11:34:23.469Z,28.51
2018-10-06T11:36:51.241Z,28.05
2018-10-06T11:39:18.986Z,28.34
2018-10-06T11:41:46.778Z,28.14
2018-10-06T11:44:14.535Z,28.08
2018-10-06T11:46:42.301Z,28.46
2018-10-06T11:49:10.176Z,28.63
2018-10-06T11:51:37.885Z,27.42
2018-10-06T11:54:05.934Z,27.02
2018-10-06T11:56:33.766Z,27.25
2018-10-06T11:59:01.525Z,27.36
2018-10-06T12:01:29.286Z,27.86
2018-10-06T12:03:57.161Z,28.24
2018-10-06T12:06:24.962Z,28.43
2018-10-06T12:08:52.702Z,28.18
2018-10-06T12:11:20.493Z,28.75
2018-10-06T12:13:48.270Z,29.24
2018-10-06T12:16:16.119Z,29.19
2018-10-06T12:18:43.947Z,29.81
2018-10-06T12:21:11.727Z,28.53
2018-10-06T12:23:39.493Z,28.13
2018-10-06T12:26:07.353Z,27.99
2018-10-06T12:28:35.106Z,27.58
2018-10-06T12:31:02.838Z,28.62
2018-10-06T12:33:30.570Z,27.90
2018-10-06T12:35:58.326Z,26.91
2018-10-06T12:38:26.019Z,27.67
2018-10-06T12:40:53.849Z,27.64
2018-10-06T12:43:21.606Z,27.31
2018-10-06T12:45:49.313Z,26.70
2018-10-06T12:48:17.048Z,27.75
2018-10-06T12:50:44.797Z,26.88
2018-10-06T12:53:12.558Z,26.97
2018-10-06T12:55:40.358Z,26.79
2018-10-06T12:58:08.074Z,26.18
2018-10-06T13:00:35.848Z,27.12
2018-10-06T13:03:03.622Z,27.41
2018-10-06T13:05:31.354Z,27.71
2018-10-06T13:07:59.093Z,27.98
2018-10-06T13:10:26.856Z,28.05
2018-10-06T13:12:54.586Z,29.12
2018-10-06T13:15:22.307Z,28.98
2018-10-06T13:17:50.057Z,28.22
2018-10-06T13:20:17.818Z,27.85
2018-10-06T13:22:45.563Z,27.86
2018-10-06T13:25:13.382Z,27.84
2018-10-06T13:27:41.049Z,27.36
2018-10-06T13:30:08.723Z,27.60
2018-10-06T13:32:36.559Z,27.89
2018-10-06T13:35:04.365Z,28.41
2018-10-06T13:37:32.121Z,28.31
2018-10-06T13:39:59.930Z,28.33
2018-10-06T13:42:27.708Z,28.33
2018-10-06T13:44:55.427Z,28.57
2018-10-06T13:47:23.209Z,28.60
2018-10-06T13:49:51.035Z,28.31
2018-10-06T13:52:18.761Z,28.22
2018-10-06T13:54:46.586Z,28.17
2018-10-06T13:57:14.482Z,28.13
2018-10-06T13:59:42.250Z,27.80
2018-10-06T14:02:10.077Z,27.77
2018-10-06T14:04:37.822Z,27.74
2018-10-06T14:07:05.569Z,27.80
2018-10-06T14:09:33.359Z,27.91
2018-10-06T14:12:01.058Z,27.95
2018-10-06T14:14:28.802Z,27.53
2018-10-06T14:16:56.574Z,27.79
2018-10-06T14:19:24.434Z,28.06
2018-10-06T14:21:52.155Z,28.02
2018-10-06T14:24:19.885Z,27.62
2018-10-06T14:26:47.623Z,27.14
2018-10-06T14:29:15.443Z,26.88
2018-10-06T14:31:43.256Z,27.23
2018-10-06T14:34:10.997Z,26.41
2018-10-06T14:36:38.774Z,26.48
2018-10-06T14:39:08.285Z,26.61
2018-10-06T14:41:36.135Z,26.78
2018-10-06T14:44:03.891Z,26.99
2018-10-06T14:46:31.739Z,26.37
2018-10-06T14:48:59.708Z,26.37
2018-10-06T14:51:27.483Z,26.43
2018-10-06T14:53:55.294Z,26.29
2018-10-06T14:56:23.100Z,26.50
2018-10-06T14:58:50.830Z,26.49
2018-10-06T15:01:18.742Z,26.19
2018-10-06T15:03:46.479Z,25.90
2018-10-06T15:06:14.232Z,25.64
2018-10-06T15:08:41.989Z,25.45
2018-10-06T15:11:09.726Z,25.48
2018-10-06T15:13:37.486Z,25.34
2018-10-06T15:16:05.237Z,25.38
2018-10-06T15:18:32.954Z,25.29
2018-10-06T15:21:00.730Z,24.94
2018-10-06T15:23:28.501Z,24.55
2018-10-06T15:25:56.225Z,24.15
2018-10-06T15:28:23.980Z,23.80
2018-10-06T15:30:51.823Z,23.66
2018-10-06T15:33:19.508Z,23.40
2018-10-06T15:35:47.278Z,23.08
2018-10-06T15:38:15.087Z,22.79
2018-10-06T15:40:42.839Z,22.42
2018-10-06T15:43:10.616Z,22.04
2018-10-06T15:45:38.439Z,21.62
2018-10-06T15:48:06.214Z,21.51
2018-10-06T15:50:33.913Z,21.48
2018-10-06T15:53:01.756Z,21.25
2018-10-06T15:55:29.519Z,21.07
2018-10-06T15:57:57.278Z,20.92
2018-10-06T16:00:25.018Z,20.74
2018-10-06T16:02:52.774Z,20.57
2018-10-06T16:05:20.519Z,20.32
2018-10-06T16:07:48.370Z,20.02
2018-10-06T16:10:16.173Z,19.84
2018-10-06T16:12:43.987Z,19.77
2018-10-06T16:15:11.822Z,19.73
2018-10-06T16:17:39.537Z,19.61
2018-10-06T16:20:07.310Z,19.58
2018-10-06T16:22:35.108Z,19.61
2018-10-06T16:25:02.874Z,19.58
2018-10-06T16:27:30.679Z,19.55
2018-10-06T16:29:58.473Z,19.51
2018-10-06T16:32:26.229Z,19.48
2018-10-06T16:34:53.963Z,19.38
2018-10-06T16:37:22.221Z,19.26
2018-10-06T16:39:49.969Z,19.21
2018-10-06T16:42:17.760Z,19.12
2018-10-06T16:44:45.574Z,19.09
2018-10-06T16:47:13.432Z,19.12
2018-10-06T16:49:41.758Z,19.28
2018-10-06T16:52:09.919Z,19.42
2018-10-06T16:54:37.667Z,19.44
2018-10-06T16:57:05.475Z,19.17
2018-10-06T16:59:33.543Z,19.37
2018-10-06T17:02:03.820Z,19.27
2018-10-06T17:04:34.052Z,19.13
2018-10-06T17:07:04.736Z,19.11
2018-10-06T17:09:32.918Z,19.18
2018-10-06T17:12:01.020Z,19.17
2018-10-06T17:14:29.380Z,19.09
2018-10-06T17:16:57.938Z,19.03
2018-10-06T17:19:25.931Z,18.73
2018-10-06T17:21:54.949Z,18.63
2018-10-06T17:24:22.951Z,18.59
2018-10-06T17:26:51.127Z,18.52
2018-10-06T17:29:20.418Z,18.75
2018-10-06T17:31:48.469Z,18.65
2018-10-06T17:34:16.630Z,18.64
2018-10-06T17:36:44.449Z,18.77
2018-10-06T17:39:12.474Z,18.73
2018-10-06T17:41:40.733Z,18.73
2018-10-06T17:44:09.132Z,18.88
2018-10-06T17:46:40.630Z,18.70
2018-10-06T17:49:10.650Z,18.82
2018-10-06T17:51:40.748Z,18.54
2018-10-06T17:54:11.252Z,18.42
2018-10-06T17:56:42.389Z,18.48
2018-10-06T17:59:12.986Z,18.23
2018-10-06T18:01:42.632Z,18.43
2018-10-06T18:04:13.755Z,18.37
2018-10-06T18:06:44.085Z,18.50
2018-10-06T18:09:14.204Z,18.40
2018-10-06T18:11:45.151Z,18.56
2018-10-06T18:14:15.233Z,18.32
2018-10-06T18:16:45.758Z,18.09
2018-10-06T18:19:16.091Z,17.89
2018-10-06T18:21:46.861Z,18.05
2018-10-06T18:24:17.628Z,18.00
2018-10-06T18:26:48.309Z,17.64
2018-10-06T18:29:19.424Z,17.53
2018-10-06T18:31:48.531Z,17.56
2018-10-06T18:34:18.513Z,17.47
2018-10-06T18:36:47.170Z,17.41
2018-10-06T18:39:16.261Z,17.22
2018-10-06T18:41:45.186Z,17.09
2018-10-06T18:44:13.196Z,17.12
2018-10-06T18:46:41.355Z,17.04
2018-10-06T18:49:09.747Z,16.95
2018-10-06T18:51:38.442Z,17.01
2018-10-06T18:54:07.001Z,16.77
2018-10-06T18:56:37.008Z,16.72
2018-10-06T18:59:06.262Z,16.81
2018-10-06T19:01:35.743Z,16.75
2018-10-06T19:04:05.366Z,16.46
2018-10-06T19:06:34.997Z,16.66
2018-10-06T19:09:04.009Z,16.61
2018-10-06T19:11:32.437Z,16.57
2018-10-06T19:14:00.245Z,16.42
2018-10-06T19:16:28.366Z,16.38
2018-10-06T19:18:56.199Z,16.42
2018-10-06T19:21:25.349Z,16.35
2018-10-06T19:23:53.599Z,16.29
2018-10-06T19:26:21.848Z,16.36
2018-10-06T19:28:50.128Z,16.34
2018-10-06T19:31:18.140Z,16.27
2018-10-06T19:33:46.296Z,16.19
2018-10-06T19:36:14.061Z,16.16
2018-10-06T19:38:41.840Z,16.08
2018-10-06T19:41:09.681Z,15.81
2018-10-06T19:43:37.555Z,15.86
2018-10-06T19:46:05.348Z,15.85
2018-10-06T19:48:33.124Z,15.74
2018-10-06T19:51:01.406Z,15.74
2018-10-06T19:53:29.344Z,15.69
2018-10-06T19:55:57.144Z,15.55
2018-10-06T19:58:24.879Z,15.56
2018-10-06T20:00:52.690Z,15.51
2018-10-06T20:03:20.411Z,15.36
2018-10-06T20:05:48.578Z,15.34
2018-10-06T20:08:16.650Z,15.38
2018-10-06T20:10:44.369Z,15.42
2018-10-06T20:13:12.095Z,15.40
2018-10-06T20:15:39.838Z,15.30
2018-10-06T20:18:07.654Z,15.22
2018-10-06T20:20:35.401Z,15.18
2018-10-06T20:23:03.234Z,14.98
2018-10-06T20:25:31.005Z,14.94
2018-10-06T20:27:58.764Z,14.93
2018-10-06T20:30:27.017Z,14.86
2018-10-06T20:32:54.835Z,14.96
2018-10-06T20:35:22.647Z,15.01
2018-10-06T20:37:50.393Z,14.96
2018-10-06T20:40:18.310Z,15.03
2018-10-06T20:42:45.977Z,15.01
2018-10-06T20:45:13.745Z,14.95
2018-10-06T20:47:41.485Z,14.82
2018-10-06T20:50:09.189Z,14.83
2018-10-06T20:52:36.970Z,14.86
2018-10-06T20:55:04.723Z,14.86
2018-10-06T20:57:32.395Z,14.78
2018-10-06T21:00:00.218Z,14.83
2018-10-06T21:02:27.928Z,14.71
2018-10-06T21:04:55.721Z,14.78
2018-10-06T21:07:23.619Z,14.73
2018-10-06T21:09:51.354Z,14.69
2018-10-06T21:12:19.095Z,14.68
2018-10-06T21:14:46.893Z,14.73
2018-10-06T21:17:14.642Z,14.68
2018-10-06T21:19:42.430Z,14.60
2018-10-06T21:22:10.221Z,14.60
2018-10-06T21:24:37.963Z,14.54
2018-10-06T21:27:05.766Z,14.45
2018-10-06T21:29:33.713Z,14.32
2018-10-06T21:32:01.365Z,14.23
2018-10-06T21:34:29.139Z,14.12
2018-10-06T21:36:57.081Z,14.16
2018-10-06T21:39:24.820Z,14.06
2018-10-06T21:41:52.570Z,13.97
2018-10-06T21:44:20.305Z,13.89
2018-10-06T21:46:48.031Z,13.71
2018-10-06T21:49:15.765Z,13.62
2018-10-06T21:51:43.566Z,13.38
2018-10-06T21:54:11.338Z,13.36
2018-10-06T21:56:39.114Z,13.43
2018-10-06T21:59:06.911Z,13.41
2018-10-06T22:01:34.945Z,13.47
2018-10-06T22:04:02.794Z,13.35
2018-10-06T22:06:30.621Z,13.27
2018-10-06T22:08:58.342Z,13.18
2018-10-06T22:11:26.133Z,13.24
2018-10-06T22:13:53.882Z,13.22
2018-10-06T22:16:21.906Z,13.04
2018-10-06T22:18:49.674Z,12.97
2018-10-06T22:21:17.503Z,12.89
2018-10-06T22:23:45.289Z,12.92
2018-10-06T22:26:13.018Z,12.66
2018-10-06T22:28:40.787Z,12.71
2018-10-06T22:31:09.322Z,12.64
2018-10-06T22:33:37.001Z,12.56
2018-10-06T22:36:04.801Z,12.54
2018-10-06T22:38:32.602Z,12.34
2018-10-06T22:41:00.296Z,12.48
2018-10-06T22:43:28.081Z,12.45
2018-10-06T22:45:55.811Z,12.26
2018-10-06T22:48:23.692Z,12.27
2018-10-06T22:50:51.389Z,12.17
2018-10-06T22:53:19.078Z,12.21
2018-10-06T22:55:46.754Z,12.31
2018-10-06T22:58:14.526Z,12.32
2018-10-06T23:00:42.186Z,12.21
2018-10-06T23:03:09.993Z,12.26
2018-10-06T23:05:37.706Z,12.26
2018-10-06T23:08:05.449Z,12.19
2018-10-06T23:10:33.206Z,12.13
2018-10-06T23:13:00.979Z,12.08
2018-10-06T23:15:28.720Z,12.21
2018-10-06T23:17:56.489Z,12.28
2018-10-06T23:20:24.291Z,12.10
2018-10-06T23:22:52.075Z,12.04
2018-10-06T23:25:19.838Z,12.08
2018-10-06T23:27:47.605Z,12.05
2018-10-06T23:30:15.285Z,12.04
2018-10-06T23:32:43.055Z,11.91
2018-10-06T23:35:10.865Z,12.02
2018-10-06T23:37:38.627Z,11.96
2018-10-06T23:40:06.643Z,11.99
2018-10-06T23:42:34.475Z,12.04
2018-10-06T23:45:02.296Z,11.82
2018-10-06T23:47:30.050Z,11.90
2018-10-06T23:49:57.882Z,11.90
2018-10-06T23:52:25.623Z,12.01
2018-10-06T23:54:53.313Z,11.83
2018-10-06T23:57:21.061Z,11.74
2018-10-06T23:59:48.786Z,11.89
